Time;durP1;ratioP1;P1;durP2;ratioP2;P2;SDS_P1;SDS_P2;PMS_P1;PMS_P2;Temp;Humidity;BMP_temperature;BMP_pressure;BME280_temperature;BME280_humidity;BME280_pressure;Samples;Min_cycle;Max_cycle;Signal;HPM_P1;HPM_P2
2023/03/14 00:00:29;;;;;;;6.78;2.00;;;;;;;11.08;95.30;98968.28;4905376;29;20825;-90
2023/03/14 00:02:55;;;;;;;8.18;1.95;;;;;;;10.96;95.68;98947.41;4903673;29;20035;-90
2023/03/14 00:05:20;;;;;;;6.95;1.80;;;;;;;10.96;95.56;98950.84;4903003;29;20017;-90
2023/03/14 00:07:46;;;;;;;6.55;2.00;;;;;;;10.90;95.61;98947.75;4886077;29;20036;-91
2023/03/14 00:10:13;;;;;;;7.72;1.70;;;;;;;10.90;94.34;98963.28;4903672;29;20028;-91
2023/03/14 00:12:40;;;;;;;7.68;1.92;;;;;;;10.84;94.70;98961.88;4900389;29;20559;-90
2023/03/14 00:15:06;;;;;;;5.20;1.70;;;;;;;10.82;93.97;98957.69;4916723;29;20365;-90
2023/03/14 00:17:34;;;;;;;8.95;1.60;;;;;;;10.73;92.84;98924.50;4891438;29;20166;-91
2023/03/14 00:20:05;;;;;;;8.00;1.92;;;;;;;10.78;92.04;98957.00;4901697;29;20199;-90
2023/03/14 00:22:33;;;;;;;5.22;1.88;;;;;;;10.70;91.67;98948.84;4901418;29;20031;-91
2023/03/14 00:24:59;;;;;;;6.45;1.42;;;;;;;10.55;91.87;98942.72;4885297;29;20043;-90
2023/03/14 00:27:24;;;;;;;9.05;1.80;;;;;;;10.63;91.81;98950.09;4902619;29;20025;-91
2023/03/14 00:29:50;;;;;;;5.57;1.38;;;;;;;10.55;91.26;98949.66;4916487;29;20533;-90
2023/03/14 00:32:15;;;;;;;5.13;1.50;;;;;;;10.48;91.28;98951.75;4901867;29;20032;-90
2023/03/14 00:34:40;;;;;;;6.70;1.63;;;;;;;10.45;90.72;98964.00;4903357;29;20662;-90
2023/03/14 00:37:06;;;;;;;8.20;1.40;;;;;;;10.37;91.00;98966.19;4921913;29;20036;-91
2023/03/14 00:39:31;;;;;;;6.70;1.38;;;;;;;10.35;90.71;98958.50;4939166;28;20034;-90
2023/03/14 00:41:57;;;;;;;4.85;1.30;;;;;;;10.23;90.88;98960.00;4925401;29;20078;-89
2023/03/14 00:44:22;;;;;;;9.52;1.52;;;;;;;10.29;90.81;98979.53;4923816;28;20034;-90
2023/03/14 00:46:50;;;;;;;6.90;1.23;;;;;;;10.19;90.90;98970.56;4923961;29;20035;-90
2023/03/14 00:49:15;;;;;;;6.78;1.25;;;;;;;10.25;89.28;98971.09;4938683;28;20030;-90
2023/03/14 00:51:41;;;;;;;9.10;1.40;;;;;;;10.16;89.42;98981.06;4941008;28;20028;-90
2023/03/14 00:54:06;;;;;;;5.25;1.23;;;;;;;10.23;89.12;98978.13;4924511;29;20042;-90
2023/03/14 00:56:32;;;;;;;5.28;1.20;;;;;;;10.26;88.83;98977.09;4923144;28;20032;-91
2023/03/14 00:58:57;;;;;;;9.05;1.23;;;;;;;10.36;89.54;98980.91;4924709;29;20052;-90
2023/03/14 01:01:23;;;;;;;6.63;1.70;;;;;;;10.40;88.03;98971.19;4927310;29;20035;-90
2023/03/14 01:03:53;;;;;;;7.82;1.30;;;;;;;10.29;88.25;98959.66;4926265;29;20027;-90
2023/03/14 01:06:21;;;;;;;7.95;1.10;;;;;;;10.37;88.48;98981.75;4925378;29;20036;-91
2023/03/14 01:08:47;;;;;;;6.97;1.20;;;;;;;10.41;87.99;98973.72;4908006;29;20472;-90
2023/03/14 01:11:22;;;;;;;8.98;1.50;;;;;;;10.37;88.14;98971.38;4922258;28;20046;-90
2023/03/14 01:13:47;;;;;;;8.07;1.30;;;;;;;10.42;88.46;98969.38;4924533;29;20063;-90
2023/03/14 01:16:14;;;;;;;7.05;1.20;;;;;;;10.33;88.90;98964.66;4912139;29;20101;-90
2023/03/14 01:18:41;;;;;;;7.82;1.33;;;;;;;10.35;88.01;98973.19;4924648;29;20198;-91
2023/03/14 01:21:23;;;;;;;6.85;1.20;;;;;;;10.33;89.43;98959.50;4924103;29;20035;-90
2023/03/14 01:23:50;;;;;;;7.13;1.15;;;;;;;10.35;90.32;98962.84;4923250;29;20152;-90
2023/03/14 01:26:21;;;;;;;8.38;1.38;;;;;;;10.25;89.16;98960.72;4923593;29;20106;-90
2023/03/14 01:28:47;;;;;;;8.15;1.35;;;;;;;10.37;88.84;98969.63;4924040;29;20124;-91
2023/03/14 01:31:13;;;;;;;8.55;1.10;;;;;;;10.35;88.67;98960.25;4905950;29;20115;-90
2023/03/14 01:33:40;;;;;;;9.18;1.60;;;;;;;10.23;89.27;98939.28;4922815;29;20147;-90
2023/03/14 01:36:06;;;;;;;6.30;1.30;;;;;;;10.27;88.24;98942.53;4906934;29;20028;-90
2023/03/14 01:38:33;;;;;;;5.75;1.20;;;;;;;10.24;88.86;98945.25;4923422;29;20400;-90
2023/03/14 01:40:59;;;;;;;5.82;1.20;;;;;;;10.25;88.40;98941.75;4924183;29;20106;-90
2023/03/14 01:43:25;;;;;;;5.53;1.17;;;;;;;10.22;89.13;98934.19;4923125;28;20036;-90
2023/03/14 01:46:05;;;;;;;4.53;1.10;;;;;;;10.39;89.44;98943.63;4923959;29;20026;-89
2023/03/14 01:48:35;;;;;;;6.05;1.05;;;;;;;10.33;88.55;98931.00;4922839;28;20069;-90
2023/03/14 01:51:05;;;;;;;5.47;1.13;;;;;;;10.37;88.34;98943.72;4911960;29;20027;-90
2023/03/14 01:53:30;;;;;;;5.72;1.10;;;;;;;10.15;88.80;98906.91;4923018;29;20038;-90
2023/03/14 01:55:57;;;;;;;6.63;1.27;;;;;;;10.23;88.40;98918.56;4907899;29;20075;-91
2023/03/14 01:58:27;;;;;;;5.47;1.00;;;;;;;10.19;89.03;98909.28;4909640;29;20464;-90
2023/03/14 02:00:53;;;;;;;6.60;1.20;;;;;;;10.12;89.86;98909.63;4924203;29;20035;-90
2023/03/14 02:03:21;;;;;;;6.65;1.30;;;;;;;10.10;90.71;98912.31;4923682;29;20028;-90
2023/03/14 02:05:48;;;;;;;9.45;1.30;;;;;;;10.18;91.46;98930.06;4911614;29;20126;-90
2023/03/14 02:08:16;;;;;;;9.57;1.40;;;;;;;10.06;91.71;98921.16;4921540;29;20046;-90
2023/03/14 02:10:45;;;;;;;7.25;1.40;;;;;;;10.10;91.92;98925.25;4923201;29;20036;-90
2023/03/14 02:13:13;;;;;;;5.18;1.10;;;;;;;9.96;92.65;98904.44;4911420;29;20054;-90
2023/03/14 02:15:39;;;;;;;7.90;1.33;;;;;;;10.09;92.10;98920.19;4938378;28;20067;-90
2023/03/14 02:18:06;;;;;;;8.40;1.70;;;;;;;9.96;91.70;98909.63;4920644;29;20051;-90
2023/03/14 02:20:44;;;;;;;12.98;1.70;;;;;;;10.11;92.88;98929.50;4912495;29;20075;-91
2023/03/14 02:23:10;;;;;;;9.48;1.50;;;;;;;10.02;92.59;98917.06;4913817;29;20032;-91
2023/03/14 02:25:45;;;;;;;8.20;1.50;;;;;;;9.98;92.94;98912.94;4937556;28;20031;-92
2023/03/14 02:28:11;;;;;;;7.05;1.40;;;;;;;9.91;93.90;98904.66;4922605;29;20052;-92
2023/03/14 02:30:37;;;;;;;7.03;1.52;;;;;;;9.91;94.26;98896.06;4921680;29;20195;-92
2023/03/14 02:33:09;;;;;;;12.30;1.83;;;;;;;10.02;94.58;98921.41;4907186;29;20056;-92
2023/03/14 02:35:43;;;;;;;9.43;1.83;;;;;;;9.89;93.59;98901.31;4911455;29;20031;-92
2023/03/14 02:38:24;;;;;;;;;;;;;;;10.09;92.65;98913.25;4922385;29;20122;-92
2023/03/14 02:40:50;;;;;;;5.65;1.25;;;;;;;9.94;93.26;98889.91;4918378;29;20016;-92
2023/03/14 02:43:16;;;;;;;8.85;1.30;;;;;;;9.84;93.15;98889.53;4920173;29;20102;-91
2023/03/14 02:45:49;;;;;;;8.65;1.75;;;;;;;9.80;93.80;98903.56;4921666;29;20167;-92
2023/03/14 02:48:20;;;;;;;7.63;1.70;;;;;;;9.68;94.09;98896.44;4911343;29;20019;-92
2023/03/14 02:50:48;;;;;;;8.25;1.67;;;;;;;9.65;95.04;98892.25;4922611;29;20035;-90
2023/03/14 02:53:21;;;;;;;9.88;1.90;;;;;;;9.73;94.47;98899.63;4921276;29;20032;-90
2023/03/14 02:55:48;;;;;;;10.25;1.70;;;;;;;9.79;94.87;98914.81;4904446;29;20055;-90
2023/03/14 02:58:14;;;;;;;11.90;1.90;;;;;;;9.77;94.76;98895.94;4922048;29;20030;-90
2023/03/14 03:00:39;;;;;;;9.10;1.63;;;;;;;9.74;94.73;98885.78;4922253;29;20428;-90
2023/03/14 03:03:05;;;;;;;6.75;1.52;;;;;;;9.83;94.64;98893.88;4920086;29;20023;-90
2023/03/14 03:05:31;;;;;;;11.02;1.95;;;;;;;9.79;94.80;98887.19;4904594;29;20031;-90
2023/03/14 03:07:56;;;;;;;10.20;1.88;;;;;;;9.93;94.86;98907.19;4921294;29;20035;-90
2023/03/14 03:10:22;;;;;;;12.25;2.10;;;;;;;9.86;94.82;98905.84;4934742;28;20111;-91
2023/03/14 03:12:48;;;;;;;5.80;1.63;;;;;;;9.84;94.83;98889.53;4904244;29;20413;-91
2023/03/14 03:15:13;;;;;;;6.55;1.50;;;;;;;9.91;94.78;98901.25;4937358;28;20020;-90
2023/03/14 03:17:39;;;;;;;7.10;1.95;;;;;;;9.88;94.86;98904.84;4935835;28;20031;-90
2023/03/14 03:20:08;;;;;;;6.63;1.42;;;;;;;9.84;94.67;98889.53;4921567;29;20043;-90
2023/03/14 03:22:38;;;;;;;8.07;1.70;;;;;;;10.00;94.70;98907.69;4922488;29;20075;-90
2023/03/14 03:25:05;;;;;;;8.68;1.90;;;;;;;9.97;94.37;98900.09;4904334;29;20400;-91
2023/03/14 03:27:32;;;;;;;8.23;1.60;;;;;;;9.97;94.67;98897.50;4922267;29;20507;-91
2023/03/14 03:29:58;;;;;;;10.90;1.38;;;;;;;9.86;94.74;98880.78;4905455;29;20094;-91
2023/03/14 03:32:24;;;;;;;9.68;1.90;;;;;;;10.00;94.19;98895.59;4921080;29;20035;-90
2023/03/14 03:34:49;;;;;;;5.03;1.73;;;;;;;9.86;94.59;98874.78;4922473;29;20200;-90
2023/03/14 03:37:15;;;;;;;9.15;1.70;;;;;;;9.92;94.33;98887.41;4921622;29;20027;-91
2023/03/14 03:39:42;;;;;;;9.57;1.60;;;;;;;9.85;94.38;98879.13;4921623;29;20027;-90
2023/03/14 03:42:08;;;;;;;6.88;1.50;;;;;;;9.95;94.44;98900.19;4936312;28;20074;-90
2023/03/14 03:44:33;;;;;;;8.02;1.60;;;;;;;9.87;94.75;98879.88;4905011;29;20062;-90
2023/03/14 03:46:59;;;;;;;8.05;1.45;;;;;;;9.92;94.76;98884.81;4904961;29;20066;-90
2023/03/14 03:49:28;;;;;;;5.80;1.25;;;;;;;9.90;94.59;98882.28;4923586;29;20027;-90
2023/03/14 03:51:53;;;;;;;10.88;1.23;;;;;;;9.89;94.59;98879.81;4923151;29;20055;-90
2023/03/14 03:54:18;;;;;;;8.07;1.48;;;;;;;9.98;94.34;98887.06;4936504;28;20058;-90
2023/03/14 03:56:44;;;;;;;8.38;1.77;;;;;;;9.96;94.08;98886.34;4922661;29;20066;-90
2023/03/14 03:59:09;;;;;;;6.15;1.23;;;;;;;9.99;94.01;98885.31;4922262;29;20498;-91
2023/03/14 04:01:35;;;;;;;7.20;1.30;;;;;;;9.80;94.86;98865.59;4922582;29;20138;-91
2023/03/14 04:04:00;;;;;;;8.52;1.20;;;;;;;9.91;94.34;98873.63;4936308;28;20028;-90
2023/03/14 04:06:26;;;;;;;4.80;1.50;;;;;;;9.79;94.56;98860.50;4904132;29;20030;-90
2023/03/14 04:08:51;;;;;;;9.57;1.40;;;;;;;9.79;94.81;98863.91;4920365;29;20040;-90
2023/03/14 04:11:17;;;;;;;5.15;1.20;;;;;;;9.82;94.62;98870.69;4921621;29;20032;-91
2023/03/14 04:13:42;;;;;;;8.07;1.40;;;;;;;9.70;94.83;98858.38;4908538;29;20032;-90
2023/03/14 04:16:21;;;;;;;7.43;1.55;;;;;;;9.73;95.26;98869.41;4921337;29;20035;-91
2023/03/14 04:18:47;;;;;;;8.73;1.30;;;;;;;9.73;95.47;98856.47;4919713;29;20038;-90
2023/03/14 04:21:12;;;;;;;5.25;1.10;;;;;;;9.74;96.11;98865.06;4934843;28;20028;-90
2023/03/14 04:23:37;;;;;;;6.47;1.02;;;;;;;9.72;96.51;98872.91;4936046;28;20050;-90
2023/03/14 04:26:03;;;;;;;7.40;1.20;;;;;;;9.78;96.87;98877.75;4936731;28;20036;-90
2023/03/14 04:28:28;;;;;;;5.28;1.20;;;;;;;9.70;96.97;98863.53;4909337;29;20031;-90
2023/03/14 04:30:54;;;;;;;6.18;1.20;;;;;;;9.62;97.15;98853.59;4937284;28;20516;-92
2023/03/14 04:33:19;;;;;;;7.57;1.17;;;;;;;9.70;97.42;98866.13;4921277;29;20127;-92
2023/03/14 04:35:45;;;;;;;7.00;1.50;;;;;;;9.71;97.33;98871.22;4920807;29;20098;-92
2023/03/14 04:38:12;;;;;;;8.02;1.30;;;;;;;9.59;97.07;98853.75;4908294;29;20101;-92
2023/03/14 04:40:38;;;;;;;5.60;1.52;;;;;;;9.61;97.48;98851.09;4921061;29;20674;-94
2023/03/14 04:43:04;;;;;;;7.43;1.38;;;;;;;9.58;97.11;98846.06;4918805;29;20373;-92
2023/03/14 04:45:32;;;;;;;8.10;1.40;;;;;;;9.74;97.36;98862.50;4919211;29;20643;-93
2023/03/14 04:48:00;;;;;;;5.10;1.33;;;;;;;9.62;97.49;98847.59;4920069;29;20066;-92
2023/03/14 04:50:25;;;;;;;7.00;1.30;;;;;;;9.64;98.05;98851.78;4919447;29;20083;-92
2023/03/14 04:52:50;;;;;;;3.70;1.15;;;;;;;9.68;98.79;98853.31;4922163;29;20044;-93
2023/03/14 04:55:16;;;;;;;5.93;1.33;;;;;;;9.61;99.26;98840.75;4919483;28;20059;-93
2023/03/14 04:57:41;;;;;;;5.20;1.77;;;;;;;9.74;99.87;98865.06;4919673;29;20039;-92
2023/03/14 05:00:08;;;;;;;5.72;1.45;;;;;;;9.68;99.85;98840.38;4919479;29;20055;-93
2023/03/14 05:02:34;;;;;;;2.85;1.08;;;;;;;9.63;100.00;98846.66;4903224;29;20040;-92
2023/03/14 05:05:00;;;;;;;2.28;1.10;;;;;;;9.65;100.00;98860.38;4934815;28;20543;-92
2023/03/14 05:07:25;;;;;;;3.75;1.17;;;;;;;9.46;100.00;98850.97;4921984;29;20127;-93
2023/03/14 05:09:52;;;;;;;3.15;1.10;;;;;;;9.42;100.00;98877.06;4907359;29;20027;-90
2023/03/14 05:12:18;;;;;;;4.03;1.20;;;;;;;9.21;100.00;98870.41;4920849;29;20027;-90
2023/03/14 05:14:43;;;;;;;5.20;1.33;;;;;;;9.15;100.00;98865.50;4908171;29;20032;-91
2023/03/14 05:17:11;;;;;;;4.85;1.30;;;;;;;8.96;100.00;98850.06;4920737;29;20032;-91
2023/03/14 05:19:36;;;;;;;2.85;1.02;;;;;;;9.02;100.00;98878.19;4909157;29;20036;-89
2023/03/14 05:22:02;;;;;;;3.90;1.35;;;;;;;8.83;100.00;98854.16;4921648;29;20035;-90
2023/03/14 05:24:27;;;;;;;2.78;1.10;;;;;;;8.79;100.00;98844.91;4908892;29;20149;-91
2023/03/14 05:26:53;;;;;;;4.18;1.70;;;;;;;8.74;100.00;98845.09;4928095;29;20188;-89
2023/03/14 05:29:18;;;;;;;3.75;1.50;;;;;;;8.71;100.00;98840.09;4938833;28;20039;-90
2023/03/14 05:31:44;;;;;;;3.20;1.35;;;;;;;8.73;100.00;98854.59;4939386;28;20036;-90
2023/03/14 05:34:09;;;;;;;2.90;1.42;;;;;;;8.65;100.00;98846.41;4939308;28;20130;-91
2023/03/14 05:36:35;;;;;;;5.00;1.50;;;;;;;8.62;100.00;98854.28;4924119;29;20039;-89
2023/03/14 05:39:00;;;;;;;3.97;1.85;;;;;;;8.54;100.00;98842.63;4923774;29;20776;-90
2023/03/14 05:41:26;;;;;;;4.55;1.70;;;;;;;8.44;100.00;98831.09;4907260;29;20297;-89
2023/03/14 05:43:51;;;;;;;4.22;1.75;;;;;;;8.45;100.00;98833.59;4927295;29;20071;-90
2023/03/14 05:46:16;;;;;;;4.90;1.70;;;;;;;8.39;100.00;98827.91;4924098;29;20401;-90
2023/03/14 05:48:42;;;;;;;3.78;1.63;;;;;;;8.45;100.00;98832.78;4939357;28;20039;-90
2023/03/14 05:51:07;;;;;;;6.20;1.70;;;;;;;8.48;100.00;98832.59;4922186;28;20031;-90
2023/03/14 05:53:33;;;;;;;4.70;2.00;;;;;;;8.50;100.00;98841.97;4923378;29;20027;-91
2023/03/14 05:55:58;;;;;;;7.68;2.13;;;;;;;8.42;100.00;98823.41;4924779;29;20028;-90
2023/03/14 05:58:26;;;;;;;6.38;2.15;;;;;;;8.46;100.00;98831.88;4937617;28;20350;-91
2023/03/14 06:00:55;;;;;;;5.97;2.15;;;;;;;8.44;100.00;98824.19;4905782;29;20050;-91
2023/03/14 06:03:20;;;;;;;4.53;2.20;;;;;;;8.46;100.00;98818.97;4937564;28;20087;-91
2023/03/14 06:05:46;;;;;;;6.57;2.42;;;;;;;8.42;100.00;98797.59;4907624;29;20039;-90
2023/03/14 06:08:11;;;;;;;4.72;2.15;;;;;;;8.46;100.00;98806.06;4906141;29;20127;-91
2023/03/14 06:10:37;;;;;;;4.93;2.20;;;;;;;8.46;100.00;98814.59;4938321;28;20064;-91
2023/03/14 06:13:03;;;;;;;6.72;2.30;;;;;;;8.45;100.00;98805.22;4924400;29;20613;-91
2023/03/14 06:15:28;;;;;;;5.90;2.50;;;;;;;8.52;100.00;98814.34;4923133;29;20083;-91
2023/03/14 06:17:55;;;;;;;5.63;2.20;;;;;;;8.68;100.00;98835.91;4923332;29;20046;-91
2023/03/14 06:20:20;;;;;;;6.45;2.40;;;;;;;8.58;100.00;98815.78;4924433;29;20032;-93
2023/03/14 06:22:46;;;;;;;8.65;2.75;;;;;;;8.73;100.00;98828.78;4922141;29;20087;-93
2023/03/14 06:25:11;;;;;;;9.02;2.88;;;;;;;8.76;100.00;98816.63;4924283;29;20032;-93
2023/03/14 06:27:40;;;;;;;5.38;2.50;;;;;;;8.85;100.00;98834.28;4922294;29;20036;-93
2023/03/14 06:30:08;;;;;;;7.30;2.50;;;;;;;8.91;100.00;98836.56;4922813;29;20147;-93
2023/03/14 06:32:37;;;;;;;6.40;2.60;;;;;;;8.89;100.00;98834.03;4924139;29;20170;-93
2023/03/14 06:35:02;;;;;;;7.68;2.53;;;;;;;8.95;100.00;98846.66;4923696;29;20503;-93
2023/03/14 06:37:31;;;;;;;6.57;2.28;;;;;;;8.86;100.00;98823.03;4927280;29;20036;-93
2023/03/14 06:39:56;;;;;;;6.57;2.60;;;;;;;8.93;100.00;98834.75;4936401;29;20550;-93
2023/03/14 06:42:22;;;;;;;6.43;2.85;;;;;;;9.02;100.00;98839.44;4924203;29;20499;-93
2023/03/14 06:44:48;;;;;;;6.93;2.90;;;;;;;9.05;100.00;98850.47;4939081;28;20091;-94
2023/03/14 06:47:21;;;;;;;8.77;2.85;;;;;;;9.15;100.00;98848.25;4921645;29;20107;-93
2023/03/14 06:49:46;;;;;;;7.95;2.70;;;;;;;9.16;100.00;98843.91;4938973;28;20028;-93
2023/03/14 06:52:14;;;;;;;7.85;2.83;;;;;;;9.14;100.00;98838.00;4922066;29;20089;-93
2023/03/14 06:54:40;;;;;;;6.00;2.90;;;;;;;9.27;100.00;98845.06;4922142;29;20425;-93
2023/03/14 06:57:05;;;;;;;7.15;3.08;;;;;;;9.47;100.00;98847.47;4906148;29;20891;-93
2023/03/14 06:59:33;;;;;;;10.07;3.25;;;;;;;9.64;100.00;98862.13;4922129;29;20690;-93
2023/03/14 07:01:59;;;;;;;9.20;3.42;;;;;;;9.62;100.00;98832.91;4921858;29;20036;-93
2023/03/14 07:04:24;;;;;;;7.78;2.92;;;;;;;9.76;100.00;98861.47;4909842;29;20412;-93
2023/03/14 07:06:50;;;;;;;6.30;2.90;;;;;;;9.63;100.00;98838.91;4920859;29;21078;-94
2023/03/14 07:09:18;;;;;;;9.07;3.30;;;;;;;9.67;100.00;98843.03;4922660;29;20032;-93
2023/03/14 07:11:44;;;;;;;8.73;3.47;;;;;;;9.60;100.00;98836.50;4910571;29;20028;-93
2023/03/14 07:14:09;;;;;;;8.15;3.15;;;;;;;9.63;100.00;98854.44;4923055;29;20045;-93
2023/03/14 07:16:35;;;;;;;7.85;3.45;;;;;;;9.56;100.00;98855.66;4921531;28;21160;-92
2023/03/14 07:19:03;;;;;;;8.77;3.53;;;;;;;9.45;100.00;98851.88;4923340;29;20039;-93
2023/03/14 07:21:34;;;;;;;9.00;3.53;;;;;;;9.47;100.00;98868.16;4909638;29;20727;-92
2023/03/14 07:24:00;;;;;;;9.40;3.50;;;;;;;9.32;100.00;98865.50;4919285;29;20078;-94
2023/03/14 07:26:33;;;;;;;10.15;3.53;;;;;;;9.26;100.00;98873.56;4916838;28;20236;-92
2023/03/14 07:29:06;;;;;;;8.98;3.90;;;;;;;9.20;100.00;98962.63;4904242;29;20503;-92
2023/03/14 07:31:32;;;;;;;3.00;1.55;;;;;;;8.97;100.00;98952.53;4919642;29;20039;-92
2023/03/14 07:34:00;;;;;;;3.25;1.02;;;;;;;8.61;100.00;98963.66;4906274;29;20048;-93
2023/03/14 07:36:25;;;;;;;1.90;1.20;;;;;;;8.40;100.00;98979.28;4902814;29;20028;-91
2023/03/14 07:38:58;;;;;;;2.17;1.10;;;;;;;8.20;100.00;98987.88;4903168;29;20063;-92
2023/03/14 07:41:26;;;;;;;1.17;0.98;;;;;;;8.08;100.00;99006.47;4904770;29;20024;-91
2023/03/14 07:43:51;;;;;;;2.05;0.90;;;;;;;7.93;100.00;99006.22;4905671;29;20499;-91
2023/03/14 07:46:17;;;;;;;1.83;0.68;;;;;;;7.82;100.00;99010.16;4902956;29;20585;-91
2023/03/14 07:48:42;;;;;;;3.08;0.88;;;;;;;7.65;100.00;99020.31;4900941;29;20765;-91
2023/03/14 07:51:08;;;;;;;1.70;0.90;;;;;;;7.67;100.00;99044.31;4900695;29;20037;-92
2023/03/14 07:53:34;;;;;;;2.92;1.20;;;;;;;7.54;100.00;99051.72;4899185;29;20032;-92
2023/03/14 07:56:02;;;;;;;3.38;1.15;;;;;;;7.37;100.00;99046.41;4901669;29;20043;-91
2023/03/14 07:58:28;;;;;;;3.95;1.27;;;;;;;7.34;100.00;99064.56;4915091;29;20507;-92
2023/03/14 08:00:53;;;;;;;3.30;1.17;;;;;;;7.28;100.00;99062.22;4901293;29;20043;-93
2023/03/14 08:03:19;;;;;;;3.10;1.33;;;;;;;7.22;100.00;99070.19;4902597;29;20052;-91
2023/03/14 08:05:50;;;;;;;3.22;1.40;;;;;;;7.20;100.00;99074.56;4900289;29;20245;-92
2023/03/14 08:08:15;;;;;;;2.63;1.33;;;;;;;7.19;100.00;99089.16;4915416;29;20031;-92
2023/03/14 08:10:41;;;;;;;3.72;1.50;;;;;;;7.14;100.00;99084.19;4904610;29;20032;-91
2023/03/14 08:13:17;;;;;;;3.47;1.60;;;;;;;7.29;100.00;99124.00;4914041;29;20864;-92
2023/03/14 08:15:42;;;;;;;3.30;1.55;;;;;;;7.25;100.00;99125.00;4912273;29;20020;-93
2023/03/14 08:18:14;;;;;;;3.78;1.38;;;;;;;7.18;100.00;99122.72;4899618;29;20134;-93
2023/03/14 08:20:47;;;;;;;4.55;1.63;;;;;;;7.13;100.00;99131.47;4903113;29;20039;-92
2023/03/14 08:23:12;;;;;;;5.18;1.45;;;;;;;7.12;100.00;99134.09;4900406;29;20039;-93
2023/03/14 08:25:40;;;;;;;4.55;1.60;;;;;;;7.29;100.00;99160.09;4900524;29;20032;-93
2023/03/14 08:28:06;;;;;;;3.13;1.30;;;;;;;7.40;100.00;99162.25;4903684;29;20119;-93
2023/03/14 08:30:31;;;;;;;3.13;1.30;;;;;;;7.44;100.00;99171.53;4899246;29;20160;-93
2023/03/14 08:32:58;;;;;;;5.10;1.35;;;;;;;7.51;100.00;99178.13;4900352;29;20072;-92
2023/03/14 08:35:24;;;;;;;4.82;1.30;;;;;;;7.66;100.00;99190.47;4902066;29;20031;-92
2023/03/14 08:37:49;;;;;;;2.28;1.30;;;;;;;7.73;100.00;99194.47;4899474;29;20032;-92
2023/03/14 08:40:17;;;;;;;5.80;1.60;;;;;;;7.78;100.00;99202.06;4913508;28;20055;-93
2023/03/14 08:42:43;;;;;;;5.25;1.65;;;;;;;7.77;100.00;99198.63;4900966;29;20434;-93
2023/03/14 08:45:11;;;;;;;4.45;1.50;;;;;;;7.81;100.00;99202.78;4898768;29;20673;-93
2023/03/14 08:47:37;;;;;;;4.88;1.33;;;;;;;7.94;100.00;99221.19;4887034;29;20059;-93
2023/03/14 08:50:04;;;;;;;1.80;1.13;;;;;;;8.01;100.00;99227.78;4903581;29;20051;-93
2023/03/14 08:52:37;;;;;;;1.90;1.25;;;;;;;8.04;100.00;99244.91;4900170;29;20028;-93
2023/03/14 08:55:05;;;;;;;3.83;1.38;;;;;;;7.86;100.00;99239.53;4900903;29;20374;-92
2023/03/14 08:57:33;;;;;;;5.45;1.50;;;;;;;7.84;100.00;99266.31;4903431;29;20032;-92
2023/03/14 09:00:14;;;;;;;4.60;1.40;;;;;;;7.66;100.00;99270.41;4899515;29;20033;-92
2023/03/14 09:02:40;;;;;;;4.38;1.42;;;;;;;7.57;100.00;99288.81;4917790;28;20123;-92
2023/03/14 09:05:06;;;;;;;3.97;1.42;;;;;;;7.47;100.00;99295.16;4904183;29;20047;-92
2023/03/14 09:07:32;;;;;;;3.45;1.48;;;;;;;7.34;100.00;99292.19;4900639;29;20032;-91
2023/03/14 09:09:57;;;;;;;2.88;1.40;;;;;;;7.37;100.00;99299.81;4904445;29;20669;-91
2023/03/14 09:12:23;;;;;;;2.72;1.40;;;;;;;7.41;100.00;99314.28;4904518;29;20200;-92
2023/03/14 09:14:50;;;;;;;4.47;1.70;;;;;;;7.42;100.00;99328.00;4905271;29;20032;-92
2023/03/14 09:17:16;;;;;;;4.05;1.60;;;;;;;7.37;100.00;99325.56;4917317;29;20377;-92
2023/03/14 09:19:41;;;;;;;5.18;1.80;;;;;;;7.46;100.00;99335.56;4905399;29;20496;-92
2023/03/14 09:22:06;;;;;;;6.10;1.85;;;;;;;7.50;100.00;99344.06;4917143;28;20439;-93
2023/03/14 09:24:32;;;;;;;5.75;2.45;;;;;;;7.50;100.00;99351.78;4919363;29;20033;-92
2023/03/14 09:26:57;;;;;;;6.97;2.70;;;;;;;7.41;100.00;99368.41;4917940;29;20131;-93
2023/03/14 09:29:24;;;;;;;8.07;2.30;;;;;;;7.26;100.00;99407.59;4902802;29;20024;-92
2023/03/14 09:31:49;;;;;;;1.77;0.70;;;;;;;6.90;100.00;99430.22;4904601;29;20031;-93
2023/03/14 09:34:14;;;;;;;0.60;0.60;;;;;;;6.68;100.00;99448.09;4918215;29;20135;-92
2023/03/14 09:36:40;;;;;;;2.55;0.60;;;;;;;6.47;100.00;99450.47;4900898;29;20028;-92
2023/03/14 09:39:08;;;;;;;2.20;0.60;;;;;;;6.21;100.00;99462.31;4903606;29;20036;-92
2023/03/14 09:41:47;;;;;;;1.38;0.70;;;;;;;6.03;100.00;99460.28;4903097;29;20267;-93
2023/03/14 09:44:27;;;;;;;1.58;0.57;;;;;;;5.90;100.00;99474.34;4904159;29;20040;-93
2023/03/14 09:46:57;;;;;;;1.83;0.55;;;;;;;6.00;100.00;99478.38;4892044;29;20032;-93
2023/03/14 09:49:34;;;;;;;1.10;0.60;;;;;;;6.24;100.00;99493.13;4918476;29;20496;-93
2023/03/14 09:52:07;;;;;;;1.52;0.60;;;;;;;6.51;100.00;99512.09;4903425;29;20074;-93
2023/03/14 09:54:46;;;;;;;2.33;0.68;;;;;;;6.68;100.00;99542.53;4917865;29;20250;-93
2023/03/14 09:57:23;;;;;;;2.58;0.55;;;;;;;6.59;100.00;99532.47;4917172;29;20071;-93
2023/03/14 09:59:51;;;;;;;2.90;0.55;;;;;;;6.54;100.00;99542.06;4902553;29;20753;-93
2023/03/14 10:02:22;;;;;;;2.97;0.85;;;;;;;6.58;100.00;99559.09;4892227;29;20240;-93
2023/03/14 10:04:50;;;;;;;5.75;0.73;;;;;;;6.51;100.00;99571.28;4903092;29;20248;-93
2023/03/14 10:07:19;;;;;;;4.38;0.93;;;;;;;6.55;100.00;99580.59;4906964;29;20697;-92
2023/03/14 10:09:53;;;;;;;3.88;0.80;;;;;;;6.55;100.00;99584.94;4907106;29;20091;-93
2023/03/14 10:12:32;;;;;;;5.22;1.00;;;;;;;6.74;100.00;99589.53;4918193;29;20480;-93
2023/03/14 10:15:03;;;;;;;4.22;1.00;;;;;;;7.05;100.00;99622.97;4918610;28;20032;-93
2023/03/14 10:17:39;;;;;;;3.92;0.85;;;;;;;7.10;100.00;99641.72;4917827;29;20123;-95
2023/03/14 10:20:05;;;;;;;3.00;0.85;;;;;;;6.93;100.00;99643.09;4903218;29;20463;-93
2023/03/14 10:22:34;;;;;;;7.68;1.10;;;;;;;6.85;100.00;99657.91;4918346;29;20164;-93
2023/03/14 10:25:11;;;;;;;5.53;1.42;;;;;;;6.88;100.00;99678.44;4903810;29;20781;-93
2023/03/14 10:27:37;;;;;;;6.60;0.90;;;;;;;6.90;100.00;99668.91;4917269;28;20063;-92
2023/03/14 10:30:26;;;;;;;5.57;1.00;;;;;;;7.13;100.00;99684.59;4903485;29;20555;-92
2023/03/14 10:32:51;;;;;;;8.20;1.25;;;;;;;7.31;100.00;99698.66;4917090;29;20057;-92
2023/03/14 10:35:17;;;;;;;5.20;1.00;;;;;;;7.43;97.19;99721.53;4899446;29;20035;-93
2023/03/14 10:38:12;;;;;;;5.53;0.80;;;;;;;7.36;100.00;99730.34;4903479;29;20035;-94
2023/03/14 10:40:40;;;;;;;6.88;1.25;;;;;;;7.33;100.00;99733.00;4902018;29;20579;-92
2023/03/14 10:43:15;;;;;;;4.75;1.08;;;;;;;7.49;100.00;99723.94;4903979;29;20025;-93
2023/03/14 10:45:43;;;;;;;8.75;1.23;;;;;;;7.61;93.21;99744.22;4916387;29;20147;-92
2023/03/14 10:48:14;;;;;;;9.27;1.13;;;;;;;7.82;94.70;99768.53;4903137;29;20036;-94
2023/03/14 10:50:55;;;;;;;9.10;1.05;;;;;;;7.96;91.99;99762.94;4918455;28;20463;-93
2023/03/14 10:53:25;;;;;;;9.70;1.40;;;;;;;8.00;91.98;99767.97;4902617;29;20040;-93
2023/03/14 10:55:51;;;;;;;8.15;1.30;;;;;;;8.21;95.98;99764.72;4905234;29;20064;-92
2023/03/14 10:58:25;;;;;;;13.38;1.75;;;;;;;8.51;89.96;99781.03;4901899;29;20040;-93
2023/03/14 11:00:59;;;;;;;7.63;1.40;;;;;;;8.49;89.67;99803.47;4902754;29;20453;-92
2023/03/14 11:03:28;;;;;;;7.90;1.50;;;;;;;8.33;90.82;99803.09;4917124;29;20039;-93
2023/03/14 11:06:06;;;;;;;11.98;2.10;;;;;;;8.37;90.23;99840.00;4903227;29;20340;-92
2023/03/14 11:09:06;;;;;;;9.35;1.90;;;;;;;8.51;91.62;99822.34;4891188;29;20040;-93
2023/03/14 11:11:32;;;;;;;11.00;1.65;;;;;;;8.66;88.82;99831.34;4902225;29;20044;-93
2023/03/14 11:14:11;;;;;;;8.55;1.20;;;;;;;8.87;87.35;99866.78;4915354;29;20524;-93
2023/03/14 11:17:00;;;;;;;10.73;1.90;;;;;;;8.65;87.88;99863.22;4915924;29;20043;-93
2023/03/14 11:19:25;;;;;;;12.35;1.73;;;;;;;8.51;90.71;99886.91;4916902;29;20091;-90
2023/03/14 11:22:05;;;;;;;11.77;1.40;;;;;;;7.97;94.63;99897.09;4916978;29;20036;-90
2023/03/14 11:24:53;;;;;;;5.03;1.20;;;;;;;7.42;94.88;99933.84;4916471;29;20103;-93
2023/03/14 11:27:30;;;;;;;6.88;1.60;;;;;;;6.77;99.78;99931.09;4899687;29;20389;-93
2023/03/14 11:29:59;;;;;;;7.55;1.42;;;;;;;6.42;100.00;99908.72;4916763;29;20039;-92
2023/03/14 11:32:34;;;;;;;9.35;1.48;;;;;;;6.35;100.00;99925.16;4901902;29;20024;-93
2023/03/14 11:35:08;;;;;;;11.90;2.10;;;;;;;6.34;100.00;99929.50;4901925;29;20139;-92
2023/03/14 11:37:40;;;;;;;15.13;1.65;;;;;;;6.30;100.00;99958.72;4902031;29;20074;-92
2023/03/14 11:40:19;;;;;;;12.65;1.83;;;;;;;6.22;100.00;99939.16;4898893;29;20561;-92